sensor_id;sensor_type;location;lat;lon;timestamp;P1;durP1;ratioP1;P2;durP2;ratioP2
52124;SDS011;38119;52.710;6.398;2023-12-20T00:00:50;16.17;;;2.17;;
52124;SDS011;38119;52.710;6.398;2023-12-20T00:03:15;15.95;;;2.20;;
52124;SDS011;38119;52.710;6.398;2023-12-20T00:05:41;14.93;;;1.90;;
52124;SDS011;38119;52.710;6.398;2023-12-20T00:08:07;13.82;;;2.00;;
52124;SDS011;38119;52.710;6.398;2023-12-20T00:10:33;10.93;;;2.53;;
52124;SDS011;38119;52.710;6.398;2023-12-20T00:12:58;9.75;;;2.38;;
52124;SDS011;38119;52.710;6.398;2023-12-20T00:15:24;17.65;;;2.42;;
52124;SDS011;38119;52.710;6.398;2023-12-20T00:17:49;11.32;;;2.30;;
52124;SDS011;38119;52.710;6.398;2023-12-20T00:20:15;15.82;;;2.80;;
52124;SDS011;38119;52.710;6.398;2023-12-20T00:22:40;12.48;;;2.33;;
52124;SDS011;38119;52.710;6.398;2023-12-20T00:25:06;14.02;;;2.35;;
52124;SDS011;38119;52.710;6.398;2023-12-20T00:27:32;13.52;;;2.10;;
52124;SDS011;38119;52.710;6.398;2023-12-20T00:29:57;17.33;;;2.85;;
52124;SDS011;38119;52.710;6.398;2023-12-20T00:32:24;13.23;;;2.15;;
52124;SDS011;38119;52.710;6.398;2023-12-20T00:34:50;13.13;;;2.20;;
52124;SDS011;38119;52.710;6.398;2023-12-20T00:37:15;17.35;;;2.55;;
52124;SDS011;38119;52.710;6.398;2023-12-20T00:39:41;16.83;;;2.55;;
52124;SDS011;38119;52.710;6.398;2023-12-20T00:42:07;16.30;;;2.72;;
52124;SDS011;38119;52.710;6.398;2023-12-20T00:44:33;13.57;;;2.45;;
52124;SDS011;38119;52.710;6.398;2023-12-20T00:46:59;14.00;;;2.58;;
52124;SDS011;38119;52.710;6.398;2023-12-20T00:49:24;9.23;;;2.33;;
52124;SDS011;38119;52.710;6.398;2023-12-20T00:52:06;13.10;;;2.47;;
52124;SDS011;38119;52.710;6.398;2023-12-20T00:54:32;13.15;;;1.92;;
52124;SDS011;38119;52.710;6.398;2023-12-20T00:56:57;17.90;;;2.42;;
52124;SDS011;38119;52.710;6.398;2023-12-20T00:59:23;15.75;;;2.55;;
52124;SDS011;38119;52.710;6.398;2023-12-20T01:01:49;19.23;;;2.80;;
52124;SDS011;38119;52.710;6.398;2023-12-20T01:04:14;10.73;;;2.33;;
52124;SDS011;38119;52.710;6.398;2023-12-20T01:06:40;11.85;;;2.25;;
52124;SDS011;38119;52.710;6.398;2023-12-20T01:09:06;10.90;;;2.20;;
52124;SDS011;38119;52.710;6.398;2023-12-20T01:11:31;16.85;;;2.40;;
52124;SDS011;38119;52.710;6.398;2023-12-20T01:13:57;20.63;;;2.67;;
52124;SDS011;38119;52.710;6.398;2023-12-20T01:16:26;20.15;;;2.80;;
52124;SDS011;38119;52.710;6.398;2023-12-20T01:18:52;15.82;;;3.60;;
52124;SDS011;38119;52.710;6.398;2023-12-20T01:21:17;19.80;;;2.88;;
52124;SDS011;38119;52.710;6.398;2023-12-20T01:23:43;12.18;;;2.60;;
52124;SDS011;38119;52.710;6.398;2023-12-20T01:26:08;17.13;;;2.80;;
52124;SDS011;38119;52.710;6.398;2023-12-20T01:28:34;18.00;;;2.38;;
52124;SDS011;38119;52.710;6.398;2023-12-20T01:31:01;20.10;;;2.40;;
52124;SDS011;38119;52.710;6.398;2023-12-20T01:33:26;16.88;;;2.70;;
52124;SDS011;38119;52.710;6.398;2023-12-20T01:35:52;22.10;;;2.38;;
52124;SDS011;38119;52.710;6.398;2023-12-20T01:38:17;17.10;;;3.10;;
52124;SDS011;38119;52.710;6.398;2023-12-20T01:40:44;24.85;;;3.40;;
52124;SDS011;38119;52.710;6.398;2023-12-20T01:43:09;15.23;;;2.47;;
52124;SDS011;38119;52.710;6.398;2023-12-20T01:45:37;13.93;;;2.88;;
52124;SDS011;38119;52.710;6.398;2023-12-20T01:48:03;17.98;;;2.97;;
52124;SDS011;38119;52.710;6.398;2023-12-20T01:50:30;20.02;;;3.00;;
52124;SDS011;38119;52.710;6.398;2023-12-20T01:52:57;18.08;;;2.70;;
52124;SDS011;38119;52.710;6.398;2023-12-20T01:55:25;17.27;;;2.63;;
52124;SDS011;38119;52.710;6.398;2023-12-20T01:57:52;17.13;;;2.78;;
52124;SDS011;38119;52.710;6.398;2023-12-20T02:00:18;20.45;;;3.05;;
52124;SDS011;38119;52.710;6.398;2023-12-20T02:02:48;18.92;;;3.35;;
52124;SDS011;38119;52.710;6.398;2023-12-20T02:05:17;18.48;;;3.00;;
52124;SDS011;38119;52.710;6.398;2023-12-20T02:07:43;19.73;;;2.60;;
52124;SDS011;38119;52.710;6.398;2023-12-20T02:10:08;24.00;;;2.90;;
52124;SDS011;38119;52.710;6.398;2023-12-20T02:12:34;18.88;;;3.03;;
52124;SDS011;38119;52.710;6.398;2023-12-20T02:15:00;17.15;;;2.67;;
52124;SDS011;38119;52.710;6.398;2023-12-20T02:17:26;16.52;;;3.13;;
52124;SDS011;38119;52.710;6.398;2023-12-20T02:19:52;15.10;;;3.00;;
52124;SDS011;38119;52.710;6.398;2023-12-20T02:22:18;17.25;;;2.85;;
52124;SDS011;38119;52.710;6.398;2023-12-20T02:24:44;15.15;;;2.65;;
52124;SDS011;38119;52.710;6.398;2023-12-20T02:27:09;13.23;;;2.55;;
52124;SDS011;38119;52.710;6.398;2023-12-20T02:29:35;11.57;;;2.53;;
52124;SDS011;38119;52.710;6.398;2023-12-20T02:32:01;13.05;;;2.58;;
52124;SDS011;38119;52.710;6.398;2023-12-20T02:34:30;12.88;;;2.40;;
52124;SDS011;38119;52.710;6.398;2023-12-20T02:36:56;16.48;;;2.72;;
52124;SDS011;38119;52.710;6.398;2023-12-20T02:39:22;15.02;;;2.50;;
52124;SDS011;38119;52.710;6.398;2023-12-20T02:41:48;20.77;;;3.85;;
52124;SDS011;38119;52.710;6.398;2023-12-20T02:44:14;19.55;;;3.72;;
52124;SDS011;38119;52.710;6.398;2023-12-20T02:46:39;26.33;;;3.83;;
52124;SDS011;38119;52.710;6.398;2023-12-20T02:49:05;13.50;;;2.90;;
52124;SDS011;38119;52.710;6.398;2023-12-20T02:51:31;18.88;;;3.20;;
52124;SDS011;38119;52.710;6.398;2023-12-20T02:53:57;28.02;;;3.83;;
52124;SDS011;38119;52.710;6.398;2023-12-20T02:56:22;18.40;;;3.75;;
52124;SDS011;38119;52.710;6.398;2023-12-20T02:58:48;21.55;;;3.47;;
52124;SDS011;38119;52.710;6.398;2023-12-20T03:01:14;21.38;;;3.88;;
52124;SDS011;38119;52.710;6.398;2023-12-20T03:03:39;20.80;;;3.65;;
52124;SDS011;38119;52.710;6.398;2023-12-20T03:06:06;24.10;;;3.67;;
52124;SDS011;38119;52.710;6.398;2023-12-20T03:08:32;23.73;;;3.63;;
52124;SDS011;38119;52.710;6.398;2023-12-20T03:10:59;29.48;;;4.45;;
52124;SDS011;38119;52.710;6.398;2023-12-20T03:13:25;24.65;;;3.33;;
52124;SDS011;38119;52.710;6.398;2023-12-20T03:15:57;25.17;;;3.88;;
52124;SDS011;38119;52.710;6.398;2023-12-20T03:18:22;18.73;;;4.07;;
52124;SDS011;38119;52.710;6.398;2023-12-20T03:20:48;27.25;;;4.68;;
52124;SDS011;38119;52.710;6.398;2023-12-20T03:23:15;25.48;;;4.30;;
52124;SDS011;38119;52.710;6.398;2023-12-20T03:25:41;21.80;;;4.00;;
52124;SDS011;38119;52.710;6.398;2023-12-20T03:28:06;34.25;;;4.60;;
52124;SDS011;38119;52.710;6.398;2023-12-20T03:30:34;25.73;;;4.28;;
52124;SDS011;38119;52.710;6.398;2023-12-20T03:32:59;24.92;;;4.38;;
52124;SDS011;38119;52.710;6.398;2023-12-20T03:35:25;20.92;;;4.05;;
52124;SDS011;38119;52.710;6.398;2023-12-20T03:37:50;25.33;;;4.40;;
52124;SDS011;38119;52.710;6.398;2023-12-20T03:40:16;20.02;;;4.00;;
52124;SDS011;38119;52.710;6.398;2023-12-20T03:42:41;30.00;;;4.80;;
52124;SDS011;38119;52.710;6.398;2023-12-20T03:45:07;29.83;;;4.20;;
52124;SDS011;38119;52.710;6.398;2023-12-20T03:47:33;24.45;;;3.90;;
52124;SDS011;38119;52.710;6.398;2023-12-20T03:49:59;31.67;;;4.78;;
52124;SDS011;38119;52.710;6.398;2023-12-20T03:52:24;19.45;;;3.72;;
52124;SDS011;38119;52.710;6.398;2023-12-20T03:54:50;24.77;;;4.13;;
52124;SDS011;38119;52.710;6.398;2023-12-20T03:57:16;26.50;;;4.82;;
52124;SDS011;38119;52.710;6.398;2023-12-20T03:59:41;30.30;;;5.15;;
52124;SDS011;38119;52.710;6.398;2023-12-20T04:02:07;21.70;;;4.07;;
52124;SDS011;38119;52.710;6.398;2023-12-20T04:04:32;23.63;;;3.65;;
52124;SDS011;38119;52.710;6.398;2023-12-20T04:06:59;25.63;;;4.43;;
52124;SDS011;38119;52.710;6.398;2023-12-20T04:09:25;27.60;;;4.68;;
52124;SDS011;38119;52.710;6.398;2023-12-20T04:11:50;29.63;;;4.18;;
52124;SDS011;38119;52.710;6.398;2023-12-20T04:14:16;31.88;;;4.88;;
52124;SDS011;38119;52.710;6.398;2023-12-20T04:16:41;24.10;;;5.05;;
52124;SDS011;38119;52.710;6.398;2023-12-20T04:19:07;27.70;;;4.70;;
52124;SDS011;38119;52.710;6.398;2023-12-20T04:21:33;27.95;;;4.57;;
52124;SDS011;38119;52.710;6.398;2023-12-20T04:23:58;25.25;;;4.95;;
52124;SDS011;38119;52.710;6.398;2023-12-20T04:26:24;34.40;;;5.30;;
52124;SDS011;38119;52.710;6.398;2023-12-20T04:28:49;24.13;;;3.92;;
52124;SDS011;38119;52.710;6.398;2023-12-20T04:31:15;28.45;;;4.05;;
52124;SDS011;38119;52.710;6.398;2023-12-20T04:33:40;26.70;;;4.38;;
52124;SDS011;38119;52.710;6.398;2023-12-20T04:36:06;26.35;;;4.50;;
52124;SDS011;38119;52.710;6.398;2023-12-20T04:38:34;28.33;;;4.65;;
52124;SDS011;38119;52.710;6.398;2023-12-20T04:40:59;27.88;;;4.82;;
52124;SDS011;38119;52.710;6.398;2023-12-20T04:43:25;21.08;;;3.88;;
52124;SDS011;38119;52.710;6.398;2023-12-20T04:45:50;23.80;;;3.70;;
52124;SDS011;38119;52.710;6.398;2023-12-20T04:48:16;22.30;;;3.72;;
52124;SDS011;38119;52.710;6.398;2023-12-20T04:50:41;25.83;;;4.40;;
52124;SDS011;38119;52.710;6.398;2023-12-20T04:53:07;21.67;;;4.65;;
52124;SDS011;38119;52.710;6.398;2023-12-20T04:55:32;26.42;;;4.55;;
52124;SDS011;38119;52.710;6.398;2023-12-20T04:57:58;27.13;;;4.65;;
52124;SDS011;38119;52.710;6.398;2023-12-20T05:00:23;24.58;;;4.32;;
52124;SDS011;38119;52.710;6.398;2023-12-20T05:02:49;23.55;;;4.55;;
52124;SDS011;38119;52.710;6.398;2023-12-20T05:05:15;27.23;;;5.18;;
52124;SDS011;38119;52.710;6.398;2023-12-20T05:07:42;25.65;;;4.65;;
52124;SDS011;38119;52.710;6.398;2023-12-20T05:10:08;18.13;;;4.20;;
52124;SDS011;38119;52.710;6.398;2023-12-20T05:12:34;28.05;;;4.55;;
52124;SDS011;38119;52.710;6.398;2023-12-20T05:14:59;24.17;;;4.43;;
52124;SDS011;38119;52.710;6.398;2023-12-20T05:17:25;22.13;;;4.00;;
52124;SDS011;38119;52.710;6.398;2023-12-20T05:19:51;21.83;;;4.70;;
52124;SDS011;38119;52.710;6.398;2023-12-20T05:22:16;23.25;;;4.10;;
52124;SDS011;38119;52.710;6.398;2023-12-20T05:24:43;24.38;;;4.88;;
52124;SDS011;38119;52.710;6.398;2023-12-20T05:27:08;24.92;;;4.05;;
52124;SDS011;38119;52.710;6.398;2023-12-20T05:29:34;21.77;;;4.20;;
52124;SDS011;38119;52.710;6.398;2023-12-20T05:31:59;25.10;;;4.20;;
52124;SDS011;38119;52.710;6.398;2023-12-20T05:34:25;23.63;;;4.72;;
52124;SDS011;38119;52.710;6.398;2023-12-20T05:36:50;26.65;;;4.70;;
52124;SDS011;38119;52.710;6.398;2023-12-20T05:39:16;25.30;;;4.43;;
52124;SDS011;38119;52.710;6.398;2023-12-20T05:41:42;19.98;;;4.25;;
52124;SDS011;38119;52.710;6.398;2023-12-20T05:44:07;28.77;;;5.05;;
52124;SDS011;38119;52.710;6.398;2023-12-20T05:46:33;25.58;;;4.38;;
52124;SDS011;38119;52.710;6.398;2023-12-20T05:48:58;23.48;;;4.13;;
52124;SDS011;38119;52.710;6.398;2023-12-20T05:51:24;23.38;;;4.68;;
52124;SDS011;38119;52.710;6.398;2023-12-20T05:53:49;27.77;;;4.40;;
52124;SDS011;38119;52.710;6.398;2023-12-20T05:56:16;25.05;;;4.63;;
52124;SDS011;38119;52.710;6.398;2023-12-20T05:58:41;25.40;;;5.43;;
52124;SDS011;38119;52.710;6.398;2023-12-20T06:01:07;19.75;;;3.70;;
52124;SDS011;38119;52.710;6.398;2023-12-20T06:03:33;24.85;;;4.63;;
52124;SDS011;38119;52.710;6.398;2023-12-20T06:05:59;19.40;;;3.78;;
52124;SDS011;38119;52.710;6.398;2023-12-20T06:08:29;25.95;;;4.65;;
52124;SDS011;38119;52.710;6.398;2023-12-20T06:10:54;23.73;;;3.88;;
52124;SDS011;38119;52.710;6.398;2023-12-20T06:13:20;21.08;;;4.20;;
52124;SDS011;38119;52.710;6.398;2023-12-20T06:15:45;26.73;;;5.05;;
52124;SDS011;38119;52.710;6.398;2023-12-20T06:18:11;25.80;;;4.90;;
52124;SDS011;38119;52.710;6.398;2023-12-20T06:20:36;20.38;;;4.10;;
52124;SDS011;38119;52.710;6.398;2023-12-20T06:23:02;27.48;;;4.38;;
52124;SDS011;38119;52.710;6.398;2023-12-20T06:25:28;29.58;;;4.25;;
52124;SDS011;38119;52.710;6.398;2023-12-20T06:27:53;25.45;;;4.35;;
52124;SDS011;38119;52.710;6.398;2023-12-20T06:30:19;28.33;;;4.30;;
52124;SDS011;38119;52.710;6.398;2023-12-20T06:32:44;23.92;;;3.97;;
52124;SDS011;38119;52.710;6.398;2023-12-20T06:35:11;19.67;;;4.43;;
52124;SDS011;38119;52.710;6.398;2023-12-20T06:37:37;19.65;;;4.00;;
52124;SDS011;38119;52.710;6.398;2023-12-20T06:40:07;22.17;;;3.70;;
52124;SDS011;38119;52.710;6.398;2023-12-20T06:42:34;29.73;;;4.45;;
52124;SDS011;38119;52.710;6.398;2023-12-20T06:45:00;18.80;;;4.00;;
52124;SDS011;38119;52.710;6.398;2023-12-20T06:47:25;15.77;;;3.67;;
52124;SDS011;38119;52.710;6.398;2023-12-20T06:49:51;24.95;;;3.88;;
52124;SDS011;38119;52.710;6.398;2023-12-20T06:52:17;24.88;;;5.25;;
52124;SDS011;38119;52.710;6.398;2023-12-20T06:54:42;23.98;;;3.80;;
52124;SDS011;38119;52.710;6.398;2023-12-20T06:57:08;28.73;;;3.75;;
52124;SDS011;38119;52.710;6.398;2023-12-20T06:59:38;24.33;;;4.43;;
52124;SDS011;38119;52.710;6.398;2023-12-20T07:02:06;25.73;;;4.20;;
52124;SDS011;38119;52.710;6.398;2023-12-20T07:04:33;28.15;;;4.35;;
52124;SDS011;38119;52.710;6.398;2023-12-20T07:06:59;20.88;;;3.63;;
52124;SDS011;38119;52.710;6.398;2023-12-20T07:09:25;23.85;;;4.03;;
52124;SDS011;38119;52.710;6.398;2023-12-20T07:11:51;23.85;;;4.07;;
52124;SDS011;38119;52.710;6.398;2023-12-20T07:14:17;20.45;;;3.75;;
52124;SDS011;38119;52.710;6.398;2023-12-20T07:16:43;28.48;;;3.95;;
52124;SDS011;38119;52.710;6.398;2023-12-20T07:19:08;22.20;;;3.78;;
52124;SDS011;38119;52.710;6.398;2023-12-20T07:21:34;25.58;;;4.03;;
52124;SDS011;38119;52.710;6.398;2023-12-20T07:23:59;25.20;;;4.47;;
52124;SDS011;38119;52.710;6.398;2023-12-20T07:26:25;25.63;;;4.30;;
52124;SDS011;38119;52.710;6.398;2023-12-20T07:28:51;22.92;;;4.18;;
52124;SDS011;38119;52.710;6.398;2023-12-20T07:31:16;20.25;;;4.13;;
52124;SDS011;38119;52.710;6.398;2023-12-20T07:33:42;21.90;;;3.60;;
52124;SDS011;38119;52.710;6.398;2023-12-20T07:36:07;21.65;;;3.95;;
52124;SDS011;38119;52.710;6.398;2023-12-20T07:38:34;19.08;;;4.32;;
52124;SDS011;38119;52.710;6.398;2023-12-20T07:40:59;21.27;;;4.35;;
52124;SDS011;38119;52.710;6.398;2023-12-20T07:43:25;27.65;;;4.50;;
52124;SDS011;38119;52.710;6.398;2023-12-20T07:45:50;22.67;;;4.82;;
52124;SDS011;38119;52.710;6.398;2023-12-20T07:48:16;19.92;;;3.45;;
52124;SDS011;38119;52.710;6.398;2023-12-20T07:50:42;24.77;;;4.38;;
52124;SDS011;38119;52.710;6.398;2023-12-20T07:53:08;23.48;;;4.80;;
52124;SDS011;38119;52.710;6.398;2023-12-20T07:55:33;30.38;;;4.68;;
52124;SDS011;38119;52.710;6.398;2023-12-20T07:57:59;36.17;;;4.97;;
52124;SDS011;38119;52.710;6.398;2023-12-20T08:00:25;18.52;;;4.05;;
52124;SDS011;38119;52.710;6.398;2023-12-20T08:02:51;27.13;;;4.40;;
52124;SDS011;38119;52.710;6.398;2023-12-20T08:05:17;31.05;;;4.38;;
52124;SDS011;38119;52.710;6.398;2023-12-20T08:07:42;30.42;;;5.28;;
52124;SDS011;38119;52.710;6.398;2023-12-20T08:10:08;23.75;;;4.13;;
52124;SDS011;38119;52.710;6.398;2023-12-20T08:12:34;23.88;;;4.40;;
52124;SDS011;38119;52.710;6.398;2023-12-20T08:14:59;31.30;;;5.00;;
52124;SDS011;38119;52.710;6.398;2023-12-20T08:17:26;29.48;;;5.28;;
52124;SDS011;38119;52.710;6.398;2023-12-20T08:19:51;25.67;;;5.00;;
52124;SDS011;38119;52.710;6.398;2023-12-20T08:22:17;25.42;;;4.88;;
52124;SDS011;38119;52.710;6.398;2023-12-20T08:24:42;19.70;;;4.20;;
52124;SDS011;38119;52.710;6.398;2023-12-20T08:27:08;34.13;;;4.93;;
52124;SDS011;38119;52.710;6.398;2023-12-20T08:29:34;24.98;;;5.10;;
52124;SDS011;38119;52.710;6.398;2023-12-20T08:32:00;29.25;;;4.50;;
52124;SDS011;38119;52.710;6.398;2023-12-20T08:34:26;26.73;;;4.90;;
52124;SDS011;38119;52.710;6.398;2023-12-20T08:36:52;24.55;;;4.57;;
52124;SDS011;38119;52.710;6.398;2023-12-20T08:39:18;30.20;;;5.00;;
52124;SDS011;38119;52.710;6.398;2023-12-20T08:41:43;31.23;;;5.53;;
52124;SDS011;38119;52.710;6.398;2023-12-20T08:44:09;29.63;;;5.32;;
52124;SDS011;38119;52.710;6.398;2023-12-20T08:46:35;27.90;;;5.05;;
52124;SDS011;38119;52.710;6.398;2023-12-20T08:49:01;31.95;;;5.30;;
52124;SDS011;38119;52.710;6.398;2023-12-20T08:51:27;26.20;;;4.80;;
52124;SDS011;38119;52.710;6.398;2023-12-20T08:53:54;20.90;;;4.07;;
52124;SDS011;38119;52.710;6.398;2023-12-20T08:56:19;27.30;;;4.68;;
52124;SDS011;38119;52.710;6.398;2023-12-20T08:58:48;24.15;;;3.97;;
52124;SDS011;38119;52.710;6.398;2023-12-20T09:01:14;22.95;;;4.75;;
52124;SDS011;38119;52.710;6.398;2023-12-20T09:03:40;24.33;;;4.55;;
52124;SDS011;38119;52.710;6.398;2023-12-20T09:06:05;20.00;;;3.80;;
52124;SDS011;38119;52.710;6.398;2023-12-20T09:08:31;25.50;;;4.90;;
52124;SDS011;38119;52.710;6.398;2023-12-20T09:10:57;20.83;;;4.10;;
52124;SDS011;38119;52.710;6.398;2023-12-20T09:13:23;23.45;;;4.22;;
52124;SDS011;38119;52.710;6.398;2023-12-20T09:15:56;24.60;;;3.97;;
52124;SDS011;38119;52.710;6.398;2023-12-20T09:18:22;25.98;;;5.00;;
52124;SDS011;38119;52.710;6.398;2023-12-20T09:20:48;22.05;;;4.32;;
52124;SDS011;38119;52.710;6.398;2023-12-20T09:23:14;25.45;;;4.07;;
52124;SDS011;38119;52.710;6.398;2023-12-20T09:25:39;25.23;;;4.30;;
52124;SDS011;38119;52.710;6.398;2023-12-20T09:28:05;17.38;;;3.97;;
52124;SDS011;38119;52.710;6.398;2023-12-20T09:30:31;25.92;;;4.80;;
52124;SDS011;38119;52.710;6.398;2023-12-20T09:32:56;23.67;;;4.40;;
52124;SDS011;38119;52.710;6.398;2023-12-20T09:35:22;35.58;;;5.13;;
52124;SDS011;38119;52.710;6.398;2023-12-20T09:37:48;19.35;;;3.67;;
52124;SDS011;38119;52.710;6.398;2023-12-20T09:40:14;28.73;;;4.80;;
52124;SDS011;38119;52.710;6.398;2023-12-20T09:42:48;26.15;;;4.80;;
52124;SDS011;38119;52.710;6.398;2023-12-20T09:45:27;21.83;;;4.40;;
52124;SDS011;38119;52.710;6.398;2023-12-20T09:47:53;23.88;;;5.22;;
52124;SDS011;38119;52.710;6.398;2023-12-20T09:50:21;22.00;;;4.57;;
52124;SDS011;38119;52.710;6.398;2023-12-20T09:52:51;28.17;;;4.95;;
52124;SDS011;38119;52.710;6.398;2023-12-20T09:55:18;31.17;;;4.68;;
52124;SDS011;38119;52.710;6.398;2023-12-20T09:57:45;27.33;;;4.95;;
52124;SDS011;38119;52.710;6.398;2023-12-20T10:00:14;20.73;;;4.10;;
52124;SDS011;38119;52.710;6.398;2023-12-20T10:05:21;47.47;;;18.35;;
52124;SDS011;38119;52.710;6.398;2023-12-20T10:07:55;50.47;;;24.08;;
52124;SDS011;38119;52.710;6.398;2023-12-20T10:10:21;29.27;;;10.85;;
52124;SDS011;38119;52.710;6.398;2023-12-20T10:13:08;91.82;;;38.85;;
52124;SDS011;38119;52.710;6.398;2023-12-20T10:15:35;102.50;;;57.10;;
52124;SDS011;38119;52.710;6.398;2023-12-20T10:18:01;49.28;;;35.22;;
52124;SDS011;38119;52.710;6.398;2023-12-20T10:20:28;12.20;;;5.85;;
52124;SDS011;38119;52.710;6.398;2023-12-20T10:22:54;10.23;;;3.80;;
52124;SDS011;38119;52.710;6.398;2023-12-20T10:25:24;10.60;;;2.58;;
52124;SDS011;38119;52.710;6.398;2023-12-20T10:27:50;12.50;;;2.85;;
52124;SDS011;38119;52.710;6.398;2023-12-20T10:30:33;12.18;;;3.20;;
52124;SDS011;38119;52.710;6.398;2023-12-20T10:32:59;11.80;;;3.22;;
52124;SDS011;38119;52.710;6.398;2023-12-20T10:35:24;10.20;;;3.40;;
52124;SDS011;38119;52.710;6.398;2023-12-20T10:37:51;16.90;;;6.38;;
52124;SDS011;38119;52.710;6.398;2023-12-20T10:40:21;13.52;;;4.55;;
52124;SDS011;38119;52.710;6.398;2023-12-20T10:42:47;19.20;;;12.15;;
52124;SDS011;38119;52.710;6.398;2023-12-20T10:45:15;13.77;;;5.82;;
52124;SDS011;38119;52.710;6.398;2023-12-20T10:47:42;13.45;;;3.45;;
52124;SDS011;38119;52.710;6.398;2023-12-20T10:50:11;12.55;;;2.58;;
52124;SDS011;38119;52.710;6.398;2023-12-20T10:52:36;11.48;;;2.10;;
52124;SDS011;38119;52.710;6.398;2023-12-20T10:55:03;13.70;;;2.80;;
52124;SDS011;38119;52.710;6.398;2023-12-20T10:57:30;7.93;;;1.90;;
52124;SDS011;38119;52.710;6.398;2023-12-20T10:59:55;11.57;;;2.10;;
52124;SDS011;38119;52.710;6.398;2023-12-20T11:02:26;11.15;;;4.97;;
52124;SDS011;38119;52.710;6.398;2023-12-20T11:04:59;11.52;;;3.20;;
52124;SDS011;38119;52.710;6.398;2023-12-20T11:07:35;10.73;;;3.38;;
52124;SDS011;38119;52.710;6.398;2023-12-20T11:10:13;8.63;;;1.58;;
52124;SDS011;38119;52.710;6.398;2023-12-20T11:12:48;13.10;;;2.20;;
52124;SDS011;38119;52.710;6.398;2023-12-20T11:15:29;9.80;;;1.63;;
52124;SDS011;38119;52.710;6.398;2023-12-20T11:17:55;9.65;;;2.17;;
52124;SDS011;38119;52.710;6.398;2023-12-20T11:20:22;10.55;;;1.77;;
52124;SDS011;38119;52.710;6.398;2023-12-20T11:22:52;10.10;;;1.65;;
52124;SDS011;38119;52.710;6.398;2023-12-20T11:25:19;13.40;;;1.90;;
52124;SDS011;38119;52.710;6.398;2023-12-20T11:27:46;12.25;;;2.10;;
52124;SDS011;38119;52.710;6.398;2023-12-20T11:30:48;11.15;;;2.20;;
52124;SDS011;38119;52.710;6.398;2023-12-20T11:33:25;11.95;;;2.45;;
52124;SDS011;38119;52.710;6.398;2023-12-20T11:35:52;11.52;;;2.50;;
52124;SDS011;38119;52.710;6.398;2023-12-20T11:38:21;12.45;;;2.65;;
52124;SDS011;38119;52.710;6.398;2023-12-20T11:40:50;13.35;;;2.20;;
52124;SDS011;38119;52.710;6.398;2023-12-20T11:43:31;11.55;;;2.65;;
52124;SDS011;38119;52.710;6.398;2023-12-20T11:46:04;9.43;;;2.28;;
52124;SDS011;38119;52.710;6.398;2023-12-20T11:48:39;8.07;;;1.65;;
52124;SDS011;38119;52.710;6.398;2023-12-20T11:51:09;15.02;;;2.00;;
52124;SDS011;38119;52.710;6.398;2023-12-20T11:53:35;11.73;;;2.25;;
52124;SDS011;38119;52.710;6.398;2023-12-20T11:56:02;9.75;;;1.77;;
52124;SDS011;38119;52.710;6.398;2023-12-20T11:58:28;12.45;;;1.65;;
52124;SDS011;38119;52.710;6.398;2023-12-20T12:00:54;12.38;;;2.47;;
52124;SDS011;38119;52.710;6.398;2023-12-20T12:03:20;10.23;;;1.77;;
52124;SDS011;38119;52.710;6.398;2023-12-20T12:05:47;9.55;;;1.88;;
52124;SDS011;38119;52.710;6.398;2023-12-20T12:08:13;12.93;;;1.90;;
52124;SDS011;38119;52.710;6.398;2023-12-20T12:10:39;11.88;;;2.38;;
52124;SDS011;38119;52.710;6.398;2023-12-20T12:13:04;14.57;;;2.63;;
52124;SDS011;38119;52.710;6.398;2023-12-20T12:15:30;10.07;;;1.88;;
52124;SDS011;38119;52.710;6.398;2023-12-20T12:17:56;11.05;;;1.83;;
52124;SDS011;38119;52.710;6.398;2023-12-20T12:20:22;11.80;;;1.90;;
52124;SDS011;38119;52.710;6.398;2023-12-20T12:22:58;12.38;;;2.40;;
52124;SDS011;38119;52.710;6.398;2023-12-20T12:25:28;12.02;;;2.00;;
52124;SDS011;38119;52.710;6.398;2023-12-20T12:27:56;11.90;;;2.00;;
52124;SDS011;38119;52.710;6.398;2023-12-20T12:30:25;10.32;;;1.77;;
52124;SDS011;38119;52.710;6.398;2023-12-20T12:32:51;8.23;;;1.80;;
52124;SDS011;38119;52.710;6.398;2023-12-20T12:35:17;13.30;;;1.88;;
52124;SDS011;38119;52.710;6.398;2023-12-20T12:37:43;11.20;;;2.10;;
52124;SDS011;38119;52.710;6.398;2023-12-20T12:40:10;13.27;;;2.95;;
52124;SDS011;38119;52.710;6.398;2023-12-20T12:42:37;12.25;;;2.60;;
52124;SDS011;38119;52.710;6.398;2023-12-20T12:45:03;15.35;;;2.95;;
52124;SDS011;38119;52.710;6.398;2023-12-20T12:47:29;10.20;;;2.13;;
52124;SDS011;38119;52.710;6.398;2023-12-20T12:49:56;11.95;;;2.50;;
52124;SDS011;38119;52.710;6.398;2023-12-20T12:52:22;8.15;;;1.70;;
52124;SDS011;38119;52.710;6.398;2023-12-20T12:54:48;29.25;;;8.80;;
52124;SDS011;38119;52.710;6.398;2023-12-20T12:57:14;43.85;;;26.38;;
52124;SDS011;38119;52.710;6.398;2023-12-20T12:59:41;18.45;;;10.98;;
52124;SDS011;38119;52.710;6.398;2023-12-20T13:02:07;15.15;;;6.38;;
52124;SDS011;38119;52.710;6.398;2023-12-20T13:04:33;10.52;;;4.10;;
52124;SDS011;38119;52.710;6.398;2023-12-20T13:06:58;13.73;;;4.03;;
52124;SDS011;38119;52.710;6.398;2023-12-20T13:09:24;12.82;;;5.55;;
52124;SDS011;38119;52.710;6.398;2023-12-20T13:11:50;12.18;;;3.90;;
52124;SDS011;38119;52.710;6.398;2023-12-20T13:14:15;12.52;;;2.63;;
52124;SDS011;38119;52.710;6.398;2023-12-20T13:16:42;13.77;;;2.03;;
52124;SDS011;38119;52.710;6.398;2023-12-20T13:19:07;11.10;;;2.78;;
52124;SDS011;38119;52.710;6.398;2023-12-20T13:21:33;16.30;;;4.82;;
52124;SDS011;38119;52.710;6.398;2023-12-20T13:23:59;9.73;;;2.75;;
52124;SDS011;38119;52.710;6.398;2023-12-20T13:26:24;13.25;;;2.38;;
52124;SDS011;38119;52.710;6.398;2023-12-20T13:28:50;7.05;;;2.42;;
52124;SDS011;38119;52.710;6.398;2023-12-20T13:31:16;13.30;;;1.67;;
52124;SDS011;38119;52.710;6.398;2023-12-20T13:33:41;6.78;;;1.45;;
52124;SDS011;38119;52.710;6.398;2023-12-20T13:36:07;7.47;;;1.77;;
52124;SDS011;38119;52.710;6.398;2023-12-20T13:38:33;9.20;;;1.60;;
52124;SDS011;38119;52.710;6.398;2023-12-20T13:40:58;11.07;;;3.40;;
52124;SDS011;38119;52.710;6.398;2023-12-20T13:43:24;11.05;;;2.22;;
52124;SDS011;38119;52.710;6.398;2023-12-20T13:45:50;12.65;;;2.38;;
52124;SDS011;38119;52.710;6.398;2023-12-20T13:48:16;12.52;;;2.85;;
52124;SDS011;38119;52.710;6.398;2023-12-20T13:50:42;8.93;;;1.70;;
52124;SDS011;38119;52.710;6.398;2023-12-20T13:53:07;7.35;;;1.52;;
52124;SDS011;38119;52.710;6.398;2023-12-20T13:55:33;13.02;;;2.05;;
52124;SDS011;38119;52.710;6.398;2023-12-20T13:57:58;10.75;;;2.00;;
52124;SDS011;38119;52.710;6.398;2023-12-20T14:00:24;13.70;;;2.83;;
52124;SDS011;38119;52.710;6.398;2023-12-20T14:02:49;12.48;;;2.90;;
52124;SDS011;38119;52.710;6.398;2023-12-20T14:05:16;12.80;;;2.70;;
52124;SDS011;38119;52.710;6.398;2023-12-20T14:07:43;10.43;;;2.20;;
52124;SDS011;38119;52.710;6.398;2023-12-20T14:10:12;13.50;;;2.45;;
52124;SDS011;38119;52.710;6.398;2023-12-20T14:12:38;14.05;;;2.50;;
52124;SDS011;38119;52.710;6.398;2023-12-20T14:15:04;15.85;;;2.90;;
52124;SDS011;38119;52.710;6.398;2023-12-20T14:17:36;16.73;;;4.70;;
52124;SDS011;38119;52.710;6.398;2023-12-20T14:20:03;19.40;;;4.22;;
52124;SDS011;38119;52.710;6.398;2023-12-20T14:22:31;14.98;;;2.53;;
52124;SDS011;38119;52.710;6.398;2023-12-20T14:24:57;15.73;;;3.03;;
52124;SDS011;38119;52.710;6.398;2023-12-20T14:27:22;12.68;;;3.28;;
52124;SDS011;38119;52.710;6.398;2023-12-20T14:29:49;26.95;;;3.72;;
52124;SDS011;38119;52.710;6.398;2023-12-20T14:32:17;20.85;;;3.60;;
52124;SDS011;38119;52.710;6.398;2023-12-20T14:34:43;32.58;;;3.88;;